sensor_id;sensor_type;location;lat;lon;timestamp;P1;durP1;ratioP1;P2;durP2;ratioP2
17953;SDS011;9102;53.548;9.926;2022-12-07T00:00:35;30.50;;;17.13;;
17953;SDS011;9102;53.548;9.926;2022-12-07T00:03:01;30.30;;;17.15;;
17953;SDS011;9102;53.548;9.926;2022-12-07T00:05:29;28.52;;;16.88;;
17953;SDS011;9102;53.548;9.926;2022-12-07T00:07:57;28.55;;;16.77;;
17953;SDS011;9102;53.548;9.926;2022-12-07T00:10:24;29.30;;;17.50;;
17953;SDS011;9102;53.548;9.926;2022-12-07T00:12:51;30.75;;;17.73;;
17953;SDS011;9102;53.548;9.926;2022-12-07T00:15:18;29.83;;;16.77;;
17953;SDS011;9102;53.548;9.926;2022-12-07T00:17:45;30.40;;;17.35;;
17953;SDS011;9102;53.548;9.926;2022-12-07T00:20:12;28.08;;;16.90;;
17953;SDS011;9102;53.548;9.926;2022-12-07T00:22:38;28.90;;;16.80;;
17953;SDS011;9102;53.548;9.926;2022-12-07T00:25:07;32.33;;;17.15;;
17953;SDS011;9102;53.548;9.926;2022-12-07T00:27:34;26.65;;;15.55;;
17953;SDS011;9102;53.548;9.926;2022-12-07T00:30:01;30.27;;;17.30;;
17953;SDS011;9102;53.548;9.926;2022-12-07T00:32:27;28.05;;;17.08;;
17953;SDS011;9102;53.548;9.926;2022-12-07T00:34:54;29.17;;;16.50;;
17953;SDS011;9102;53.548;9.926;2022-12-07T00:37:21;27.48;;;15.45;;
17953;SDS011;9102;53.548;9.926;2022-12-07T00:39:48;29.67;;;16.80;;
17953;SDS011;9102;53.548;9.926;2022-12-07T00:42:16;33.47;;;15.48;;
17953;SDS011;9102;53.548;9.926;2022-12-07T00:44:43;24.85;;;15.65;;
17953;SDS011;9102;53.548;9.926;2022-12-07T00:47:10;27.73;;;15.25;;
17953;SDS011;9102;53.548;9.926;2022-12-07T00:49:37;29.70;;;16.25;;
17953;SDS011;9102;53.548;9.926;2022-12-07T00:52:03;30.70;;;15.93;;
17953;SDS011;9102;53.548;9.926;2022-12-07T00:54:30;27.13;;;14.93;;
17953;SDS011;9102;53.548;9.926;2022-12-07T00:56:57;24.50;;;15.25;;
17953;SDS011;9102;53.548;9.926;2022-12-07T00:59:26;27.48;;;13.68;;
17953;SDS011;9102;53.548;9.926;2022-12-07T01:01:52;27.00;;;14.00;;
17953;SDS011;9102;53.548;9.926;2022-12-07T01:04:19;22.95;;;13.68;;
17953;SDS011;9102;53.548;9.926;2022-12-07T01:06:46;24.95;;;13.38;;
17953;SDS011;9102;53.548;9.926;2022-12-07T01:09:13;24.77;;;13.32;;
17953;SDS011;9102;53.548;9.926;2022-12-07T01:11:40;25.98;;;13.40;;
17953;SDS011;9102;53.548;9.926;2022-12-07T01:14:08;23.30;;;12.93;;
17953;SDS011;9102;53.548;9.926;2022-12-07T01:16:38;23.83;;;12.55;;
17953;SDS011;9102;53.548;9.926;2022-12-07T01:19:05;26.25;;;13.23;;
17953;SDS011;9102;53.548;9.926;2022-12-07T01:21:33;22.42;;;13.02;;
17953;SDS011;9102;53.548;9.926;2022-12-07T01:24:02;27.35;;;12.82;;
17953;SDS011;9102;53.548;9.926;2022-12-07T01:26:29;22.52;;;12.98;;
17953;SDS011;9102;53.548;9.926;2022-12-07T01:28:56;21.95;;;12.15;;
17953;SDS011;9102;53.548;9.926;2022-12-07T01:31:24;21.05;;;12.68;;
17953;SDS011;9102;53.548;9.926;2022-12-07T01:33:55;25.15;;;13.18;;
17953;SDS011;9102;53.548;9.926;2022-12-07T01:36:23;24.02;;;13.18;;
17953;SDS011;9102;53.548;9.926;2022-12-07T01:38:53;22.70;;;12.48;;
17953;SDS011;9102;53.548;9.926;2022-12-07T01:41:22;24.52;;;12.15;;
17953;SDS011;9102;53.548;9.926;2022-12-07T01:46:40;25.38;;;12.73;;
17953;SDS011;9102;53.548;9.926;2022-12-07T01:49:10;23.55;;;12.80;;
17953;SDS011;9102;53.548;9.926;2022-12-07T01:51:41;21.02;;;11.90;;
17953;SDS011;9102;53.548;9.926;2022-12-07T01:54:09;22.17;;;12.40;;
17953;SDS011;9102;53.548;9.926;2022-12-07T01:56:37;23.10;;;12.80;;
17953;SDS011;9102;53.548;9.926;2022-12-07T01:59:06;22.77;;;12.38;;
17953;SDS011;9102;53.548;9.926;2022-12-07T02:01:34;23.88;;;12.65;;
17953;SDS011;9102;53.548;9.926;2022-12-07T02:04:01;24.25;;;13.40;;
17953;SDS011;9102;53.548;9.926;2022-12-07T02:06:30;20.17;;;11.40;;
17953;SDS011;9102;53.548;9.926;2022-12-07T02:08:57;20.95;;;11.90;;
17953;SDS011;9102;53.548;9.926;2022-12-07T02:11:24;22.73;;;12.43;;
17953;SDS011;9102;53.548;9.926;2022-12-07T02:13:51;23.88;;;11.82;;
17953;SDS011;9102;53.548;9.926;2022-12-07T02:16:25;23.27;;;11.27;;
17953;SDS011;9102;53.548;9.926;2022-12-07T02:19:06;28.20;;;11.38;;
17953;SDS011;9102;53.548;9.926;2022-12-07T02:21:53;20.08;;;10.63;;
17953;SDS011;9102;53.548;9.926;2022-12-07T02:24:37;21.23;;;10.68;;
17953;SDS011;9102;53.548;9.926;2022-12-07T02:27:23;19.13;;;10.07;;
17953;SDS011;9102;53.548;9.926;2022-12-07T02:30:07;18.42;;;9.55;;
17953;SDS011;9102;53.548;9.926;2022-12-07T02:32:39;21.45;;;10.70;;
17953;SDS011;9102;53.548;9.926;2022-12-07T02:35:11;19.00;;;9.85;;
17953;SDS011;9102;53.548;9.926;2022-12-07T02:37:47;20.77;;;10.43;;
17953;SDS011;9102;53.548;9.926;2022-12-07T02:40:19;20.58;;;9.43;;
17953;SDS011;9102;53.548;9.926;2022-12-07T02:42:52;18.63;;;8.18;;
17953;SDS011;9102;53.548;9.926;2022-12-07T02:45:26;20.13;;;7.45;;
17953;SDS011;9102;53.548;9.926;2022-12-07T02:47:56;14.45;;;7.40;;
17953;SDS011;9102;53.548;9.926;2022-12-07T02:50:25;12.25;;;6.15;;
17953;SDS011;9102;53.548;9.926;2022-12-07T02:52:52;14.52;;;5.35;;
17953;SDS011;9102;53.548;9.926;2022-12-07T02:55:19;9.80;;;4.78;;
17953;SDS011;9102;53.548;9.926;2022-12-07T03:00:54;9.32;;;4.68;;
17953;SDS011;9102;53.548;9.926;2022-12-07T03:03:29;13.02;;;4.90;;
17953;SDS011;9102;53.548;9.926;2022-12-07T03:05:59;11.45;;;4.95;;
17953;SDS011;9102;53.548;9.926;2022-12-07T03:08:37;10.50;;;4.30;;
17953;SDS011;9102;53.548;9.926;2022-12-07T03:11:10;12.82;;;3.88;;
17953;SDS011;9102;53.548;9.926;2022-12-07T03:17:05;12.98;;;3.50;;
17953;SDS011;9102;53.548;9.926;2022-12-07T03:19:36;10.50;;;3.67;;
17953;SDS011;9102;53.548;9.926;2022-12-07T03:22:07;9.18;;;3.38;;
17953;SDS011;9102;53.548;9.926;2022-12-07T03:24:37;9.93;;;3.30;;
17953;SDS011;9102;53.548;9.926;2022-12-07T03:27:07;7.45;;;3.42;;
17953;SDS011;9102;53.548;9.926;2022-12-07T03:29:40;12.07;;;3.30;;
17953;SDS011;9102;53.548;9.926;2022-12-07T03:32:13;12.93;;;3.28;;
17953;SDS011;9102;53.548;9.926;2022-12-07T03:34:44;7.30;;;2.95;;
17953;SDS011;9102;53.548;9.926;2022-12-07T03:37:15;14.13;;;3.22;;
17953;SDS011;9102;53.548;9.926;2022-12-07T03:39:50;8.13;;;2.83;;
17953;SDS011;9102;53.548;9.926;2022-12-07T03:42:27;9.20;;;2.72;;
17953;SDS011;9102;53.548;9.926;2022-12-07T03:44:54;8.15;;;3.15;;
17953;SDS011;9102;53.548;9.926;2022-12-07T03:47:24;7.00;;;2.50;;
17953;SDS011;9102;53.548;9.926;2022-12-07T03:49:57;8.98;;;2.45;;
17953;SDS011;9102;53.548;9.926;2022-12-07T03:52:30;6.65;;;2.47;;
17953;SDS011;9102;53.548;9.926;2022-12-07T03:55:02;6.88;;;2.60;;
17953;SDS011;9102;53.548;9.926;2022-12-07T03:57:32;7.10;;;2.28;;
17953;SDS011;9102;53.548;9.926;2022-12-07T04:00:01;6.15;;;2.25;;
17953;SDS011;9102;53.548;9.926;2022-12-07T04:02:32;7.53;;;2.70;;
17953;SDS011;9102;53.548;9.926;2022-12-07T04:05:00;8.55;;;2.22;;
17953;SDS011;9102;53.548;9.926;2022-12-07T04:07:28;7.90;;;2.60;;
17953;SDS011;9102;53.548;9.926;2022-12-07T04:09:55;6.13;;;2.33;;
17953;SDS011;9102;53.548;9.926;2022-12-07T04:12:22;10.95;;;2.95;;
17953;SDS011;9102;53.548;9.926;2022-12-07T04:14:49;5.57;;;2.70;;
17953;SDS011;9102;53.548;9.926;2022-12-07T04:17:16;8.38;;;2.58;;
17953;SDS011;9102;53.548;9.926;2022-12-07T04:19:44;7.32;;;2.58;;
17953;SDS011;9102;53.548;9.926;2022-12-07T04:22:11;7.38;;;2.40;;
17953;SDS011;9102;53.548;9.926;2022-12-07T04:24:38;8.52;;;2.08;;
17953;SDS011;9102;53.548;9.926;2022-12-07T04:27:05;7.95;;;2.60;;
17953;SDS011;9102;53.548;9.926;2022-12-07T04:32:53;10.35;;;3.00;;
17953;SDS011;9102;53.548;9.926;2022-12-07T04:35:21;4.22;;;2.40;;
17953;SDS011;9102;53.548;9.926;2022-12-07T04:37:48;9.15;;;3.97;;
17953;SDS011;9102;53.548;9.926;2022-12-07T04:40:15;6.70;;;2.80;;
17953;SDS011;9102;53.548;9.926;2022-12-07T04:42:42;13.70;;;2.80;;
17953;SDS011;9102;53.548;9.926;2022-12-07T04:45:09;6.40;;;2.85;;
17953;SDS011;9102;53.548;9.926;2022-12-07T04:47:36;7.72;;;2.45;;
17953;SDS011;9102;53.548;9.926;2022-12-07T04:50:03;9.05;;;2.90;;
17953;SDS011;9102;53.548;9.926;2022-12-07T04:52:32;6.82;;;2.50;;
17953;SDS011;9102;53.548;9.926;2022-12-07T04:54:59;10.07;;;2.75;;
17953;SDS011;9102;53.548;9.926;2022-12-07T04:57:26;9.23;;;2.67;;
17953;SDS011;9102;53.548;9.926;2022-12-07T04:59:53;5.35;;;3.05;;
17953;SDS011;9102;53.548;9.926;2022-12-07T05:02:20;4.00;;;2.33;;
17953;SDS011;9102;53.548;9.926;2022-12-07T05:04:47;5.75;;;2.92;;
17953;SDS011;9102;53.548;9.926;2022-12-07T05:10:37;6.47;;;2.70;;
17953;SDS011;9102;53.548;9.926;2022-12-07T05:13:03;3.72;;;2.80;;
17953;SDS011;9102;53.548;9.926;2022-12-07T05:15:30;7.00;;;3.50;;
17953;SDS011;9102;53.548;9.926;2022-12-07T05:17:57;9.35;;;3.30;;
17953;SDS011;9102;53.548;9.926;2022-12-07T05:20:24;7.63;;;2.83;;
17953;SDS011;9102;53.548;9.926;2022-12-07T05:22:51;8.45;;;2.80;;
17953;SDS011;9102;53.548;9.926;2022-12-07T05:25:17;4.47;;;2.92;;
17953;SDS011;9102;53.548;9.926;2022-12-07T05:27:46;6.25;;;2.92;;
17953;SDS011;9102;53.548;9.926;2022-12-07T05:30:14;9.93;;;3.05;;
17953;SDS011;9102;53.548;9.926;2022-12-07T05:32:41;8.32;;;2.78;;
17953;SDS011;9102;53.548;9.926;2022-12-07T05:35:08;4.00;;;2.50;;
17953;SDS011;9102;53.548;9.926;2022-12-07T05:37:35;5.10;;;2.80;;
17953;SDS011;9102;53.548;9.926;2022-12-07T05:40:03;5.60;;;2.88;;
17953;SDS011;9102;53.548;9.926;2022-12-07T05:42:30;6.18;;;3.35;;
17953;SDS011;9102;53.548;9.926;2022-12-07T05:44:58;7.60;;;3.20;;
17953;SDS011;9102;53.548;9.926;2022-12-07T05:47:25;5.45;;;2.88;;
17953;SDS011;9102;53.548;9.926;2022-12-07T05:49:52;8.30;;;3.00;;
17953;SDS011;9102;53.548;9.926;2022-12-07T05:52:19;4.72;;;2.70;;
17953;SDS011;9102;53.548;9.926;2022-12-07T05:54:45;8.05;;;3.60;;
17953;SDS011;9102;53.548;9.926;2022-12-07T05:57:12;6.25;;;3.15;;
17953;SDS011;9102;53.548;9.926;2022-12-07T05:59:39;6.03;;;4.03;;
17953;SDS011;9102;53.548;9.926;2022-12-07T06:02:07;13.65;;;4.57;;
17953;SDS011;9102;53.548;9.926;2022-12-07T06:04:36;9.80;;;4.75;;
17953;SDS011;9102;53.548;9.926;2022-12-07T06:10:26;5.47;;;3.03;;
17953;SDS011;9102;53.548;9.926;2022-12-07T06:12:53;4.53;;;3.40;;
17953;SDS011;9102;53.548;9.926;2022-12-07T06:15:24;6.88;;;3.42;;
17953;SDS011;9102;53.548;9.926;2022-12-07T06:17:53;7.75;;;3.45;;
17953;SDS011;9102;53.548;9.926;2022-12-07T06:20:20;6.65;;;3.00;;
17953;SDS011;9102;53.548;9.926;2022-12-07T06:22:46;6.95;;;3.20;;
17953;SDS011;9102;53.548;9.926;2022-12-07T06:25:14;7.28;;;3.28;;
17953;SDS011;9102;53.548;9.926;2022-12-07T06:27:41;7.57;;;2.83;;
17953;SDS011;9102;53.548;9.926;2022-12-07T06:30:08;7.63;;;3.22;;
17953;SDS011;9102;53.548;9.926;2022-12-07T06:32:36;6.28;;;2.80;;
17953;SDS011;9102;53.548;9.926;2022-12-07T06:35:05;7.15;;;2.95;;
17953;SDS011;9102;53.548;9.926;2022-12-07T06:37:32;7.05;;;3.10;;
17953;SDS011;9102;53.548;9.926;2022-12-07T06:39:59;7.53;;;2.80;;
17953;SDS011;9102;53.548;9.926;2022-12-07T06:42:26;6.20;;;2.90;;
17953;SDS011;9102;53.548;9.926;2022-12-07T06:44:53;5.78;;;2.70;;
17953;SDS011;9102;53.548;9.926;2022-12-07T06:47:20;8.57;;;2.95;;
17953;SDS011;9102;53.548;9.926;2022-12-07T06:49:47;9.35;;;2.60;;
17953;SDS011;9102;53.548;9.926;2022-12-07T06:52:15;8.60;;;2.88;;
17953;SDS011;9102;53.548;9.926;2022-12-07T06:54:42;4.65;;;2.25;;
17953;SDS011;9102;53.548;9.926;2022-12-07T07:00:31;8.50;;;3.13;;
17953;SDS011;9102;53.548;9.926;2022-12-07T07:02:59;8.88;;;3.00;;
17953;SDS011;9102;53.548;9.926;2022-12-07T07:05:26;4.25;;;2.42;;
17953;SDS011;9102;53.548;9.926;2022-12-07T07:07:55;7.00;;;2.67;;
17953;SDS011;9102;53.548;9.926;2022-12-07T07:10:22;9.57;;;2.88;;
17953;SDS011;9102;53.548;9.926;2022-12-07T07:12:48;4.55;;;2.70;;
17953;SDS011;9102;53.548;9.926;2022-12-07T07:15:15;8.10;;;2.90;;
17953;SDS011;9102;53.548;9.926;2022-12-07T07:17:42;7.65;;;2.58;;
17953;SDS011;9102;53.548;9.926;2022-12-07T07:20:12;6.57;;;2.90;;
17953;SDS011;9102;53.548;9.926;2022-12-07T07:22:39;8.77;;;2.97;;
17953;SDS011;9102;53.548;9.926;2022-12-07T07:25:08;9.77;;;2.93;;
17953;SDS011;9102;53.548;9.926;2022-12-07T07:27:34;5.87;;;3.17;;
17953;SDS011;9102;53.548;9.926;2022-12-07T07:30:01;7.43;;;2.65;;
17953;SDS011;9102;53.548;9.926;2022-12-07T07:32:29;9.03;;;3.17;;
17953;SDS011;9102;53.548;9.926;2022-12-07T07:34:56;7.88;;;2.83;;
17953;SDS011;9102;53.548;9.926;2022-12-07T07:40:46;7.97;;;2.75;;
17953;SDS011;9102;53.548;9.926;2022-12-07T07:43:18;8.10;;;3.50;;
17953;SDS011;9102;53.548;9.926;2022-12-07T07:45:46;11.38;;;3.00;;
17953;SDS011;9102;53.548;9.926;2022-12-07T07:48:15;7.18;;;2.45;;
17953;SDS011;9102;53.548;9.926;2022-12-07T07:50:42;4.90;;;2.50;;
17953;SDS011;9102;53.548;9.926;2022-12-07T07:53:09;8.30;;;2.80;;
17953;SDS011;9102;53.548;9.926;2022-12-07T07:55:36;9.77;;;2.42;;
17953;SDS011;9102;53.548;9.926;2022-12-07T07:58:04;9.13;;;2.70;;
17953;SDS011;9102;53.548;9.926;2022-12-07T08:00:31;4.70;;;2.60;;
17953;SDS011;9102;53.548;9.926;2022-12-07T08:02:58;4.50;;;1.98;;
17953;SDS011;9102;53.548;9.926;2022-12-07T08:05:25;6.50;;;2.28;;
17953;SDS011;9102;53.548;9.926;2022-12-07T08:07:52;4.55;;;1.92;;
17953;SDS011;9102;53.548;9.926;2022-12-07T08:10:18;5.45;;;2.33;;
17953;SDS011;9102;53.548;9.926;2022-12-07T08:12:45;9.20;;;2.88;;
17953;SDS011;9102;53.548;9.926;2022-12-07T08:15:31;5.78;;;2.20;;
17953;SDS011;9102;53.548;9.926;2022-12-07T08:17:58;6.68;;;1.90;;
17953;SDS011;9102;53.548;9.926;2022-12-07T08:20:25;4.15;;;1.52;;
17953;SDS011;9102;53.548;9.926;2022-12-07T08:22:52;4.82;;;2.08;;
17953;SDS011;9102;53.548;9.926;2022-12-07T08:25:19;7.68;;;2.25;;
17953;SDS011;9102;53.548;9.926;2022-12-07T08:27:47;5.18;;;1.92;;
17953;SDS011;9102;53.548;9.926;2022-12-07T08:30:14;7.40;;;3.60;;
17953;SDS011;9102;53.548;9.926;2022-12-07T08:32:42;3.90;;;1.75;;
17953;SDS011;9102;53.548;9.926;2022-12-07T08:35:10;3.92;;;1.80;;
17953;SDS011;9102;53.548;9.926;2022-12-07T08:37:38;6.00;;;1.75;;
17953;SDS011;9102;53.548;9.926;2022-12-07T08:40:06;7.43;;;1.95;;
17953;SDS011;9102;53.548;9.926;2022-12-07T08:42:34;6.20;;;2.00;;
17953;SDS011;9102;53.548;9.926;2022-12-07T08:45:05;8.25;;;1.83;;
17953;SDS011;9102;53.548;9.926;2022-12-07T08:50:56;7.85;;;2.58;;
17953;SDS011;9102;53.548;9.926;2022-12-07T08:53:23;6.00;;;2.40;;
17953;SDS011;9102;53.548;9.926;2022-12-07T08:55:51;5.13;;;2.40;;
17953;SDS011;9102;53.548;9.926;2022-12-07T08:58:18;7.63;;;2.08;;
17953;SDS011;9102;53.548;9.926;2022-12-07T09:00:44;7.30;;;2.70;;
17953;SDS011;9102;53.548;9.926;2022-12-07T09:03:11;4.05;;;2.00;;
17953;SDS011;9102;53.548;9.926;2022-12-07T09:05:38;8.18;;;2.28;;
17953;SDS011;9102;53.548;9.926;2022-12-07T09:08:06;4.55;;;2.05;;
17953;SDS011;9102;53.548;9.926;2022-12-07T09:10:34;4.43;;;2.17;;
17953;SDS011;9102;53.548;9.926;2022-12-07T09:13:01;5.43;;;2.30;;
17953;SDS011;9102;53.548;9.926;2022-12-07T09:15:27;4.53;;;1.95;;
17953;SDS011;9102;53.548;9.926;2022-12-07T09:17:55;5.82;;;2.30;;
17953;SDS011;9102;53.548;9.926;2022-12-07T09:20:22;5.53;;;2.17;;
17953;SDS011;9102;53.548;9.926;2022-12-07T09:22:48;5.03;;;1.92;;
17953;SDS011;9102;53.548;9.926;2022-12-07T09:25:17;8.82;;;2.55;;
17953;SDS011;9102;53.548;9.926;2022-12-07T09:27:44;4.00;;;1.83;;
17953;SDS011;9102;53.548;9.926;2022-12-07T09:30:10;6.85;;;1.73;;
17953;SDS011;9102;53.548;9.926;2022-12-07T09:32:38;8.65;;;2.33;;
17953;SDS011;9102;53.548;9.926;2022-12-07T09:35:05;3.97;;;2.00;;
17953;SDS011;9102;53.548;9.926;2022-12-07T09:37:32;10.75;;;2.30;;
17953;SDS011;9102;53.548;9.926;2022-12-07T09:40:01;6.05;;;1.90;;
17953;SDS011;9102;53.548;9.926;2022-12-07T09:42:30;5.55;;;1.83;;
17953;SDS011;9102;53.548;9.926;2022-12-07T09:45:00;7.30;;;2.40;;
17953;SDS011;9102;53.548;9.926;2022-12-07T09:47:28;10.43;;;2.08;;
17953;SDS011;9102;53.548;9.926;2022-12-07T09:49:58;7.47;;;1.65;;
17953;SDS011;9102;53.548;9.926;2022-12-07T09:52:30;6.13;;;1.42;;
17953;SDS011;9102;53.548;9.926;2022-12-07T09:54:58;3.92;;;1.52;;
17953;SDS011;9102;53.548;9.926;2022-12-07T09:57:27;5.70;;;2.00;;
17953;SDS011;9102;53.548;9.926;2022-12-07T10:00:00;6.10;;;1.60;;
17953;SDS011;9102;53.548;9.926;2022-12-07T10:02:34;4.45;;;1.40;;
17953;SDS011;9102;53.548;9.926;2022-12-07T10:05:04;4.30;;;1.20;;
17953;SDS011;9102;53.548;9.926;2022-12-07T10:07:32;5.00;;;1.30;;
17953;SDS011;9102;53.548;9.926;2022-12-07T10:10:01;4.63;;;1.27;;
17953;SDS011;9102;53.548;9.926;2022-12-07T10:12:31;8.85;;;1.10;;
17953;SDS011;9102;53.548;9.926;2022-12-07T10:15:22;7.63;;;1.23;;
17953;SDS011;9102;53.548;9.926;2022-12-07T10:21:11;3.97;;;1.20;;
17953;SDS011;9102;53.548;9.926;2022-12-07T10:23:41;3.75;;;0.73;;
17953;SDS011;9102;53.548;9.926;2022-12-07T10:26:29;8.60;;;0.98;;
17953;SDS011;9102;53.548;9.926;2022-12-07T10:29:00;5.07;;;1.33;;
17953;SDS011;9102;53.548;9.926;2022-12-07T10:31:30;5.57;;;1.13;;
17953;SDS011;9102;53.548;9.926;2022-12-07T10:33:58;4.40;;;0.98;;
17953;SDS011;9102;53.548;9.926;2022-12-07T10:36:26;3.50;;;1.05;;
17953;SDS011;9102;53.548;9.926;2022-12-07T10:39:01;3.92;;;0.90;;
17953;SDS011;9102;53.548;9.926;2022-12-07T10:41:29;5.55;;;1.10;;
17953;SDS011;9102;53.548;9.926;2022-12-07T10:43:57;4.15;;;1.48;;
17953;SDS011;9102;53.548;9.926;2022-12-07T10:52:27;2.33;;;0.95;;
17953;SDS011;9102;53.548;9.926;2022-12-07T10:55:08;4.45;;;0.80;;
17953;SDS011;9102;53.548;9.926;2022-12-07T10:57:47;8.57;;;1.00;;
17953;SDS011;9102;53.548;9.926;2022-12-07T11:00:28;3.80;;;1.08;;
17953;SDS011;9102;53.548;9.926;2022-12-07T11:03:10;5.07;;;0.98;;
17953;SDS011;9102;53.548;9.926;2022-12-07T11:06:00;19.17;;;6.82;;
17953;SDS011;9102;53.548;9.926;2022-12-07T11:08:44;4.90;;;1.58;;
17953;SDS011;9102;53.548;9.926;2022-12-07T11:11:22;5.53;;;0.85;;
17953;SDS011;9102;53.548;9.926;2022-12-07T11:13:59;3.72;;;1.02;;
17953;SDS011;9102;53.548;9.926;2022-12-07T11:16:38;6.25;;;1.27;;
17953;SDS011;9102;53.548;9.926;2022-12-07T11:19:42;4.15;;;1.20;;
17953;SDS011;9102;53.548;9.926;2022-12-07T11:22:18;7.75;;;1.02;;
17953;SDS011;9102;53.548;9.926;2022-12-07T11:24:50;4.82;;;1.30;;
17953;SDS011;9102;53.548;9.926;2022-12-07T11:27:26;5.68;;;1.30;;
17953;SDS011;9102;53.548;9.926;2022-12-07T11:30:09;2.15;;;1.02;;
17953;SDS011;9102;53.548;9.926;2022-12-07T11:32:55;9.10;;;1.58;;
17953;SDS011;9102;53.548;9.926;2022-12-07T11:35:33;10.38;;;1.42;;
17953;SDS011;9102;53.548;9.926;2022-12-07T11:38:07;12.15;;;1.63;;
17953;SDS011;9102;53.548;9.926;2022-12-07T11:40:38;8.55;;;1.05;;
17953;SDS011;9102;53.548;9.926;2022-12-07T11:43:12;9.55;;;1.23;;
17953;SDS011;9102;53.548;9.926;2022-12-07T11:45:44;8.32;;;1.75;;
17953;SDS011;9102;53.548;9.926;2022-12-07T11:48:14;12.38;;;1.67;;
17953;SDS011;9102;53.548;9.926;2022-12-07T11:50:47;6.30;;;1.20;;
17953;SDS011;9102;53.548;9.926;2022-12-07T11:53:19;6.30;;;1.50;;
17953;SDS011;9102;53.548;9.926;2022-12-07T11:55:52;5.63;;;1.20;;
17953;SDS011;9102;53.548;9.926;2022-12-07T11:58:38;8.05;;;1.85;;
17953;SDS011;9102;53.548;9.926;2022-12-07T12:01:15;14.45;;;1.88;;
17953;SDS011;9102;53.548;9.926;2022-12-07T12:03:53;8.77;;;1.73;;
17953;SDS011;9102;53.548;9.926;2022-12-07T12:06:26;8.90;;;1.52;;
17953;SDS011;9102;53.548;9.926;2022-12-07T12:08:54;7.10;;;2.10;;
17953;SDS011;9102;53.548;9.926;2022-12-07T12:11:32;6.20;;;1.30;;
17953;SDS011;9102;53.548;9.926;2022-12-07T12:17:22;9.65;;;1.35;;
17953;SDS011;9102;53.548;9.926;2022-12-07T12:20:06;7.82;;;1.40;;
17953;SDS011;9102;53.548;9.926;2022-12-07T12:22:47;6.63;;;1.40;;
17953;SDS011;9102;53.548;9.926;2022-12-07T12:25:20;10.05;;;1.67;;
17953;SDS011;9102;53.548;9.926;2022-12-07T12:27:49;7.70;;;1.17;;
17953;SDS011;9102;53.548;9.926;2022-12-07T12:30:26;7.72;;;1.10;;
17953;SDS011;9102;53.548;9.926;2022-12-07T12:33:01;7.00;;;1.00;;
17953;SDS011;9102;53.548;9.926;2022-12-07T12:35:32;8.65;;;1.92;;
17953;SDS011;9102;53.548;9.926;2022-12-07T12:40:51;14.45;;;1.23;;
17953;SDS011;9102;53.548;9.926;2022-12-07T12:46:44;7.43;;;1.40;;
17953;SDS011;9102;53.548;9.926;2022-12-07T12:55:17;6.68;;;1.70;;
17953;SDS011;9102;53.548;9.926;2022-12-07T13:03:54;9.93;;;1.45;;
17953;SDS011;9102;53.548;9.926;2022-12-07T13:06:31;8.60;;;1.98;;
17953;SDS011;9102;53.548;9.926;2022-12-07T13:09:03;8.50;;;1.30;;
17953;SDS011;9102;53.548;9.926;2022-12-07T13:11:33;10.23;;;1.48;;
17953;SDS011;9102;53.548;9.926;2022-12-07T13:17:07;6.82;;;1.75;;
17953;SDS011;9102;53.548;9.926;2022-12-07T13:22:35;7.18;;;1.38;;
17953;SDS011;9102;53.548;9.926;2022-12-07T13:25:18;7.32;;;1.23;;
17953;SDS011;9102;53.548;9.926;2022-12-07T13:27:57;3.63;;;1.02;;
17953;SDS011;9102;53.548;9.926;2022-12-07T13:30:33;12.18;;;2.15;;
17953;SDS011;9102;53.548;9.926;2022-12-07T13:33:11;4.88;;;1.15;;
17953;SDS011;9102;53.548;9.926;2022-12-07T13:35:40;10.80;;;1.23;;
17953;SDS011;9102;53.548;9.926;2022-12-07T13:38:15;8.30;;;1.30;;
17953;SDS011;9102;53.548;9.926;2022-12-07T13:41:01;5.32;;;1.00;;
17953;SDS011;9102;53.548;9.926;2022-12-07T13:43:50;13.15;;;1.45;;
17953;SDS011;9102;53.548;9.926;2022-12-07T13:49:46;10.52;;;1.00;;
17953;SDS011;9102;53.548;9.926;2022-12-07T13:52:16;8.18;;;1.65;;
17953;SDS011;9102;53.548;9.926;2022-12-07T13:54:45;10.73;;;1.48;;
17953;SDS011;9102;53.548;9.926;2022-12-07T13:57:13;7.93;;;1.50;;
17953;SDS011;9102;53.548;9.926;2022-12-07T13:59:42;8.35;;;1.55;;
17953;SDS011;9102;53.548;9.926;2022-12-07T14:02:19;6.03;;;1.30;;
17953;SDS011;9102;53.548;9.926;2022-12-07T14:04:48;5.80;;;1.30;;
17953;SDS011;9102;53.548;9.926;2022-12-07T14:07:20;15.18;;;1.88;;
17953;SDS011;9102;53.548;9.926;2022-12-07T14:09:56;8.05;;;2.00;;
17953;SDS011;9102;53.548;9.926;2022-12-07T14:12:25;2.70;;;0.90;;
17953;SDS011;9102;53.548;9.926;2022-12-07T14:14:55;4.75;;;0.82;;
17953;SDS011;9102;53.548;9.926;2022-12-07T14:17:23;4.15;;;0.85;;
17953;SDS011;9102;53.548;9.926;2022-12-07T14:19:52;11.75;;;1.38;;
17953;SDS011;9102;53.548;9.926;2022-12-07T14:22:22;9.50;;;1.40;;
17953;SDS011;9102;53.548;9.926;2022-12-07T14:25:14;8.32;;;1.25;;
17953;SDS011;9102;53.548;9.926;2022-12-07T14:31:10;6.10;;;1.10;;
17953;SDS011;9102;53.548;9.926;2022-12-07T14:33:38;5.35;;;1.40;;
17953;SDS011;9102;53.548;9.926;2022-12-07T14:36:05;6.13;;;1.55;;
17953;SDS011;9102;53.548;9.926;2022-12-07T14:38:34;8.38;;;1.45;;
17953;SDS011;9102;53.548;9.926;2022-12-07T14:41:02;5.05;;;1.58;;
17953;SDS011;9102;53.548;9.926;2022-12-07T14:43:47;10.20;;;1.27;;
17953;SDS011;9102;53.548;9.926;2022-12-07T14:46:16;2.95;;;1.27;;
17953;SDS011;9102;53.548;9.926;2022-12-07T14:48:43;3.30;;;1.17;;
17953;SDS011;9102;53.548;9.926;2022-12-07T14:51:10;8.93;;;1.30;;
17953;SDS011;9102;53.548;9.926;2022-12-07T14:53:39;5.38;;;0.90;;
17953;SDS011;9102;53.548;9.926;2022-12-07T14:56:07;6.03;;;0.90;;
17953;SDS011;9102;53.548;9.926;2022-12-07T14:58:34;8.05;;;1.15;;
17953;SDS011;9102;53.548;9.926;2022-12-07T15:01:01;5.40;;;0.98;;
17953;SDS011;9102;53.548;9.926;2022-12-07T15:03:29;3.78;;;1.10;;
17953;SDS011;9102;53.548;9.926;2022-12-07T15:05:56;8.18;;;2.10;;
17953;SDS011;9102;53.548;9.926;2022-12-07T15:08:23;5.03;;;1.20;;
17953;SDS011;9102;53.548;9.926;2022-12-07T15:10:50;6.85;;;1.30;;
17953;SDS011;9102;53.548;9.926;2022-12-07T15:13:17;4.38;;;1.30;;
17953;SDS011;9102;53.548;9.926;2022-12-07T15:16:02;9.60;;;2.05;;
17953;SDS011;9102;53.548;9.926;2022-12-07T15:18:30;9.65;;;1.52;;
17953;SDS011;9102;53.548;9.926;2022-12-07T15:20:57;15.00;;;1.38;;
17953;SDS011;9102;53.548;9.926;2022-12-07T15:23:24;4.80;;;0.98;;
17953;SDS011;9102;53.548;9.926;2022-12-07T15:25:51;5.55;;;1.65;;
17953;SDS011;9102;53.548;9.926;2022-12-07T15:28:17;4.47;;;1.25;;
17953;SDS011;9102;53.548;9.926;2022-12-07T15:30:44;7.30;;;2.25;;
17953;SDS011;9102;53.548;9.926;2022-12-07T15:33:12;7.32;;;1.70;;
17953;SDS011;9102;53.548;9.926;2022-12-07T15:35:40;12.30;;;1.42;;
17953;SDS011;9102;53.548;9.926;2022-12-07T15:38:11;5.40;;;1.45;;
17953;SDS011;9102;53.548;9.926;2022-12-07T15:40:37;7.05;;;1.20;;
17953;SDS011;9102;53.548;9.926;2022-12-07T15:43:05;3.00;;;1.33;;
17953;SDS011;9102;53.548;9.926;2022-12-07T15:45:52;7.00;;;1.10;;
17953;SDS011;9102;53.548;9.926;2022-12-07T15:48:18;4.47;;;1.10;;
17953;SDS011;9102;53.548;9.926;2022-12-07T15:50:46;5.97;;;1.30;;
17953;SDS011;9102;53.548;9.926;2022-12-07T15:53:13;5.22;;;1.50;;
17953;SDS011;9102;53.548;9.926;2022-12-07T15:55:40;7.70;;;1.40;;
17953;SDS011;9102;53.548;9.926;2022-12-07T15:58:07;10.20;;;2.00;;
17953;SDS011;9102;53.548;9.926;2022-12-07T16:00:34;6.15;;;1.33;;
17953;SDS011;9102;53.548;9.926;2022-12-07T16:03:00;7.72;;;1.60;;
17953;SDS011;9102;53.548;9.926;2022-12-07T16:05:27;5.53;;;2.03;;
17953;SDS011;9102;53.548;9.926;2022-12-07T16:07:55;7.55;;;1.73;;
17953;SDS011;9102;53.548;9.926;2022-12-07T16:10:22;5.18;;;1.25;;
17953;SDS011;9102;53.548;9.926;2022-12-07T16:12:49;7.07;;;1.80;;
17953;SDS011;9102;53.548;9.926;2022-12-07T16:15:16;5.47;;;1.58;;
17953;SDS011;9102;53.548;9.926;2022-12-07T16:17:43;10.45;;;1.75;;
17953;SDS011;9102;53.548;9.926;2022-12-07T16:20:10;6.15;;;1.58;;
17953;SDS011;9102;53.548;9.926;2022-12-07T16:22:37;5.13;;;1.58;;
17953;SDS011;9102;53.548;9.926;2022-12-07T16:25:05;8.43;;;1.63;;